METAR

ENBN 201020Z 35011KT 9999 FEW025 14/08 Q1014

ENMS 201020Z 35007KT 9999 FEW060 16/07 Q1013 RMK WIND 412FT 32006KT

ENNM 190850Z 06010KT 9999 FEW035 BKN060 14/07 Q1017

ENOL 201020Z 36004KT 9999 SCT025 17/09 Q1013 NOSIG

ENST 201020Z 02011KT 9999 FEW025 14/07 Q1014 RMK WIND 300FT 05010KT

ENVA 201020Z 25008KT 9999 BKN040 16/11 Q1013 NOSIG RMK WIND 670FT 30005KT



TAF

TAF ENVA 200500Z 2006/2106 VRB03KT 9999 FEW010 SCT030 TEMPO 2020/2102 14012KT RA BKN014 BECMG 2102/2105 27012KT 4000 RA BR BKN006